Time;durP1;ratioP1;P1;durP2;ratioP2;P2;SDS_P1;SDS_P2;PMS_P1;PMS_P2;Temp;Humidity;BMP_temperature;BMP_pressure;BME280_temperature;BME280_humidity;BME280_pressure;Samples;Min_cycle;Max_cycle;Signal;HPM_P1;HPM_P2
2022/06/29 00:02:16;;;;;;;20.65;12.20;;;;;;;19.23;89.39;95198.41;5005516;28;20192;-78
2022/06/29 00:04:42;;;;;;;14.55;8.45;;;;;;;19.06;89.53;95181.72;4987694;28;20184;-78
2022/06/29 00:07:07;;;;;;;22.70;14.02;;;;;;;19.11;89.48;95197.78;5005154;28;20249;-78
2022/06/29 00:09:33;;;;;;;21.85;14.00;;;;;;;19.13;89.45;95203.66;5004471;28;20169;-78
2022/06/29 00:11:58;;;;;;;20.80;13.15;;;;;;;19.14;89.09;95202.59;4994479;28;20642;-78
2022/06/29 00:14:23;;;;;;;18.73;9.02;;;;;;;19.04;89.05;95184.63;5002576;28;20181;-78
2022/06/29 00:16:49;;;;;;;9.38;7.07;;;;;;;19.11;89.08;95197.78;5002862;28;20247;-78
2022/06/29 00:19:14;;;;;;;9.52;7.55;;;;;;;19.10;89.31;95198.84;5002428;28;20187;-78
2022/06/29 00:21:40;;;;;;;20.23;11.90;;;;;;;18.90;89.21;95172.00;4979038;28;20184;-78
2022/06/29 00:24:06;;;;;;;15.45;10.45;;;;;;;19.07;89.14;95208.16;5004643;28;20564;-78
2022/06/29 00:26:31;;;;;;;16.17;7.68;;;;;;;18.91;89.44;95190.41;5004564;28;20637;-78
2022/06/29 00:28:56;;;;;;;12.13;7.60;;;;;;;18.68;89.44;95172.09;5003923;28;20267;-78
2022/06/29 00:31:22;;;;;;;15.52;10.35;;;;;;;18.80;89.45;95186.03;5002295;28;20178;-78
2022/06/29 00:33:47;;;;;;;17.00;10.63;;;;;;;18.93;89.54;95206.19;5002267;28;20188;-78
2022/06/29 00:36:13;;;;;;;13.60;8.65;;;;;;;18.97;89.17;95199.25;5001764;28;20173;-78
2022/06/29 00:38:38;;;;;;;16.08;11.75;;;;;;;18.95;89.39;95199.50;5001981;28;20176;-78
2022/06/29 00:41:03;;;;;;;31.80;18.85;;;;;;;18.97;88.99;95192.06;4978684;28;20619;-78
2022/06/29 00:43:29;;;;;;;23.40;13.18;;;;;;;18.99;88.74;95189.94;4981124;28;20237;-78
2022/06/29 00:45:54;;;;;;;17.50;12.77;;;;;;;18.86;88.70;95174.34;5002085;28;20212;-78
2022/06/29 00:48:19;;;;;;;17.10;10.07;;;;;;;18.87;89.04;95191.16;5002027;28;20260;-78
2022/06/29 00:50:46;;;;;;;35.95;21.80;;;;;;;18.73;89.38;95175.59;5002249;28;20264;-77
2022/06/29 00:53:15;;;;;;;25.33;16.48;;;;;;;18.75;89.74;95194.00;4999952;28;20204;-78
2022/06/29 00:55:44;;;;;;;16.73;12.48;;;;;;;18.78;89.71;95186.28;5007429;28;20235;-78
2022/06/29 00:58:11;;;;;;;15.23;10.75;;;;;;;18.80;89.97;95181.50;4988015;28;20208;-78
2022/06/29 01:00:37;;;;;;;12.30;8.98;;;;;;;18.82;89.80;95183.94;5001149;28;20181;-78
2022/06/29 01:03:03;;;;;;;15.10;8.40;;;;;;;18.79;90.02;95171.91;4999279;28;20188;-78
2022/06/29 01:05:31;;;;;;;14.43;8.60;;;;;;;18.80;90.38;95178.84;4993855;28;20181;-78
2022/06/29 01:07:58;;;;;;;9.18;7.47;;;;;;;18.63;89.54;95148.81;4992304;28;20221;-78
2022/06/29 01:10:24;;;;;;;12.57;7.65;;;;;;;18.76;89.47;95176.94;4998704;28;20179;-78
2022/06/29 01:12:53;;;;;;;11.60;7.93;;;;;;;18.67;89.95;95175.81;5003957;28;20175;-78
2022/06/29 01:15:19;;;;;;;15.45;8.88;;;;;;;18.56;89.97;95148.19;5003604;28;20230;-78
2022/06/29 01:17:45;;;;;;;18.65;8.30;;;;;;;18.78;89.82;95169.47;4985820;28;20203;-78
2022/06/29 01:20:11;;;;;;;19.83;8.75;;;;;;;18.76;89.28;95148.41;5003869;28;20177;-78
2022/06/29 01:22:38;;;;;;;11.20;7.28;;;;;;;18.80;88.88;95160.16;5003536;28;20247;-78
2022/06/29 01:25:04;;;;;;;11.18;8.02;;;;;;;18.74;89.03;95155.06;5001694;28;20230;-78
2022/06/29 01:27:29;;;;;;;14.65;8.18;;;;;;;18.72;89.36;95151.81;4997074;28;20697;-78
2022/06/29 01:29:55;;;;;;;15.77;8.13;;;;;;;18.77;89.18;95163.34;5003360;28;20180;-78
2022/06/29 01:32:22;;;;;;;12.10;8.68;;;;;;;18.70;89.29;95164.59;5002696;28;20180;-78
2022/06/29 01:34:47;;;;;;;13.43;8.18;;;;;;;18.68;89.37;95164.84;4993086;28;20201;-78
2022/06/29 01:37:13;;;;;;;16.85;7.50;;;;;;;18.71;89.19;95168.88;5001058;28;20280;-78
2022/06/29 01:39:39;;;;;;;9.05;7.22;;;;;;;18.67;89.33;95168.59;4999606;28;20176;-78
2022/06/29 01:42:06;;;;;;;17.08;8.40;;;;;;;18.62;89.87;95173.06;4984891;28;20271;-78
2022/06/29 01:44:32;;;;;;;13.55;8.07;;;;;;;18.53;89.57;95150.56;4983628;28;20307;-78
2022/06/29 01:46:57;;;;;;;9.13;7.13;;;;;;;18.46;90.06;95175.56;5007997;28;20180;-78
2022/06/29 01:49:23;;;;;;;12.32;6.97;;;;;;;18.44;90.49;95175.00;4989793;28;20179;-78
2022/06/29 01:51:49;;;;;;;13.50;8.75;;;;;;;18.33;90.72;95143.19;5007233;28;20181;-78
2022/06/29 01:54:14;;;;;;;13.35;8.13;;;;;;;18.51;90.47;95166.03;5016336;28;20199;-78
2022/06/29 01:56:40;;;;;;;10.93;6.82;;;;;;;18.51;89.91;95148.13;5007001;28;20620;-78
2022/06/29 01:59:05;;;;;;;10.73;7.68;;;;;;;18.44;89.70;95137.69;5007377;28;20180;-78
2022/06/29 02:01:31;;;;;;;9.07;7.03;;;;;;;18.42;89.60;95149.69;5005264;28;20176;-78
2022/06/29 02:03:56;;;;;;;9.82;7.28;;;;;;;18.36;90.53;95159.47;5004950;28;20189;-78
2022/06/29 02:06:23;;;;;;;11.45;8.45;;;;;;;18.31;90.66;95146.09;5004638;28;20180;-78
2022/06/29 02:08:48;;;;;;;14.90;7.45;;;;;;;18.34;90.35;95148.25;5004679;28;20181;-79
2022/06/29 02:11:14;;;;;;;11.02;7.25;;;;;;;18.36;90.49;95148.81;4996379;28;20184;-79
2022/06/29 02:13:40;;;;;;;9.55;7.05;;;;;;;18.36;90.51;95142.66;5000203;28;20235;-79
2022/06/29 02:16:05;;;;;;;11.38;6.32;;;;;;;18.32;90.75;95149.56;5002531;28;20211;-78
2022/06/29 02:18:31;;;;;;;14.43;7.25;;;;;;;18.33;90.76;95152.00;5006027;28;20290;-78
2022/06/29 02:20:56;;;;;;;11.85;6.72;;;;;;;18.32;90.32;95144.25;5011547;28;20645;-78
2022/06/29 02:23:21;;;;;;;10.18;7.05;;;;;;;18.25;90.01;95133.75;4989204;28;20231;-78
2022/06/29 02:25:48;;;;;;;8.32;6.00;;;;;;;18.27;89.55;95122.84;5006518;28;20172;-78
2022/06/29 02:28:13;;;;;;;8.20;6.57;;;;;;;18.41;89.79;95135.53;5006762;28;20188;-78
2022/06/29 02:36:07;;;;;;;13.52;7.60;;;;;;;18.35;88.92;95131.19;5007212;28;20969;-78
2022/06/29 02:38:33;;;;;;;8.70;7.00;;;;;;;18.33;89.07;95125.34;5006418;28;20201;-78
2022/06/29 02:40:58;;;;;;;7.78;6.60;;;;;;;18.29;89.53;95132.22;4989014;28;20622;-78
2022/06/29 02:43:24;;;;;;;8.48;6.35;;;;;;;18.23;90.05;95133.22;5004892;28;20225;-78
2022/06/29 02:45:49;;;;;;;10.13;6.15;;;;;;;18.20;90.24;95128.38;5003983;28;20216;-78
2022/06/29 02:48:15;;;;;;;10.63;7.15;;;;;;;18.09;90.48;95113.34;4986569;28;20568;-78
2022/06/29 02:50:40;;;;;;;11.85;6.68;;;;;;;18.08;90.20;95115.19;5004352;28;20180;-78
2022/06/29 02:53:05;;;;;;;11.13;7.47;;;;;;;18.10;90.45;95123.75;5004004;28;20240;-78
2022/06/29 02:55:31;;;;;;;12.00;7.45;;;;;;;18.00;90.46;95115.66;5004244;28;20212;-78
2022/06/29 02:57:56;;;;;;;12.23;7.40;;;;;;;18.06;90.51;95130.66;5003340;28;20251;-79
2022/06/29 03:00:22;;;;;;;10.38;8.32;;;;;;;17.86;90.66;95102.97;5004293;28;20232;-79
2022/06/29 03:02:47;;;;;;;10.88;7.45;;;;;;;17.92;91.07;95113.44;5005198;28;20177;-79
2022/06/29 03:05:12;;;;;;;14.55;7.45;;;;;;;17.86;90.62;95103.78;5006001;28;20173;-78
2022/06/29 03:07:38;;;;;;;12.88;6.43;;;;;;;17.78;90.83;95093.59;5005744;28;20733;-79
2022/06/29 03:10:04;;;;;;;12.48;6.60;;;;;;;17.93;90.63;95122.22;4998131;28;20965;-79
2022/06/29 03:12:29;;;;;;;12.80;6.40;;;;;;;17.89;90.37;95108.63;4985965;28;20181;-79
2022/06/29 03:14:54;;;;;;;9.50;6.20;;;;;;;17.89;90.50;95100.63;5002471;28;20181;-80
2022/06/29 03:17:20;;;;;;;12.13;6.15;;;;;;;17.81;90.22;95084.28;5004754;28;20732;-80
2022/06/29 03:19:45;;;;;;;12.00;6.13;;;;;;;17.89;90.11;95113.97;4984831;28;20183;-80
2022/06/29 03:22:11;;;;;;;7.20;6.00;;;;;;;17.81;90.14;95095.75;5002254;28;20181;-79
2022/06/29 03:24:36;;;;;;;10.43;6.20;;;;;;;17.83;90.35;95117.59;5007466;28;20263;-80
2022/06/29 03:27:02;;;;;;;8.15;5.65;;;;;;;17.85;90.77;95114.69;4985405;28;20162;-80
2022/06/29 03:29:27;;;;;;;7.90;5.47;;;;;;;17.88;90.52;95119.53;5003635;28;20192;-80
2022/06/29 03:31:53;;;;;;;15.82;6.28;;;;;;;17.97;90.70;95121.50;5004504;28;20171;-80
2022/06/29 03:34:18;;;;;;;6.63;5.70;;;;;;;18.04;90.26;95122.09;5004748;28;20181;-80
2022/06/29 03:36:44;;;;;;;6.93;5.68;;;;;;;18.07;90.02;95124.25;5003478;28;20801;-81
2022/06/29 03:39:10;;;;;;;7.45;6.40;;;;;;;18.12;89.57;95126.19;5001504;28;20181;-80
2022/06/29 03:41:35;;;;;;;10.02;5.72;;;;;;;18.03;89.70;95119.69;5006577;28;20559;-80
2022/06/29 03:44:01;;;;;;;6.05;5.00;;;;;;;18.08;89.99;95125.88;5004539;28;20280;-80
2022/06/29 03:46:26;;;;;;;8.60;6.22;;;;;;;18.16;89.87;95137.16;5004395;28;20657;-79
2022/06/29 03:48:52;;;;;;;17.15;11.77;;;;;;;18.02;89.49;95096.75;5004147;28;20180;-80
2022/06/29 03:51:17;;;;;;;27.63;15.90;;;;;;;18.02;89.99;95089.56;5004380;28;20181;-79
2022/06/29 03:53:42;;;;;;;15.18;9.00;;;;;;;18.35;90.31;95123.19;4999865;28;20181;-79
2022/06/29 03:56:08;;;;;;;9.48;6.55;;;;;;;18.09;89.94;95070.72;5000172;28;20274;-79
2022/06/29 03:58:33;;;;;;;10.68;7.20;;;;;;;18.51;89.23;95115.38;5005026;28;20201;-80
2022/06/29 04:00:59;;;;;;;16.05;9.40;;;;;;;18.60;89.33;95116.50;5002615;28;20173;-77
2022/06/29 04:03:24;;;;;;;11.77;7.40;;;;;;;18.71;89.28;95110.22;4999182;28;20195;-78
2022/06/29 04:05:50;;;;;;;16.30;9.18;;;;;;;18.72;88.79;95101.97;4997748;28;20184;-77
2022/06/29 04:08:17;;;;;;;15.77;9.68;;;;;;;18.87;88.57;95106.59;5006806;28;20235;-78
2022/06/29 04:10:42;;;;;;;9.57;6.15;;;;;;;18.92;88.85;95089.84;4999184;28;20169;-78
2022/06/29 04:13:08;;;;;;;11.63;7.75;;;;;;;19.09;88.02;95099.28;5001269;28;20196;-78
2022/06/29 04:15:34;;;;;;;16.50;7.47;;;;;;;19.10;87.79;95082.22;5000980;28;20169;-77
2022/06/29 04:18:01;;;;;;;12.68;8.05;;;;;;;19.39;86.59;95101.31;4986270;28;20204;-78
2022/06/29 04:23:10;;;;;;;8.00;6.28;;;;;;;19.54;85.76;95066.72;5007224;28;20211;-78
2022/06/29 04:25:35;;;;;;;9.95;7.15;;;;;;;19.81;85.08;95101.25;5001497;28;20164;-78
2022/06/29 04:28:01;;;;;;;11.82;6.57;;;;;;;20.05;84.56;95106.94;5002030;28;20176;-78
2022/06/29 04:30:26;;;;;;;21.65;11.88;;;;;;;20.25;83.06;95108.84;4997611;28;20184;-79
2022/06/29 04:32:52;;;;;;;26.55;12.35;;;;;;;20.41;81.93;95107.81;4997738;28;20178;-79
2022/06/29 04:35:17;;;;;;;10.15;7.60;;;;;;;20.45;81.32;95100.09;4984536;28;20185;-79
2022/06/29 04:37:43;;;;;;;13.63;6.82;;;;;;;20.58;81.03;95089.66;5001866;28;20587;-79
2022/06/29 04:40:09;;;;;;;13.07;6.38;;;;;;;20.61;81.71;95086.44;5001771;28;20169;-79
2022/06/29 04:42:34;;;;;;;13.45;7.47;;;;;;;20.75;81.21;95083.25;5002469;28;20180;-79
2022/06/29 04:45:00;;;;;;;15.07;7.28;;;;;;;21.03;80.92;95098.72;5005766;28;20224;-79
2022/06/29 04:47:25;;;;;;;10.38;6.38;;;;;;;21.22;79.75;95099.00;5013158;28;20165;-79
2022/06/29 04:49:51;;;;;;;10.82;7.03;;;;;;;21.31;80.80;95110.78;5012826;28;20226;-78
2022/06/29 04:52:16;;;;;;;10.80;7.07;;;;;;;21.51;79.38;95113.41;5012733;28;20164;-78
2022/06/29 04:54:41;;;;;;;8.77;6.32;;;;;;;21.67;79.48;95076.63;5012032;28;20598;-77
2022/06/29 04:57:08;;;;;;;15.77;6.28;;;;;;;22.13;77.98;95104.06;5002035;28;20215;-77
2022/06/29 04:59:33;;;;;;;11.15;5.90;;;;;;;22.46;77.29;95124.78;4996363;28;20158;-77
2022/06/29 05:01:59;;;;;;;9.88;6.75;;;;;;;22.52;77.04;95118.28;5001805;28;20236;-77
2022/06/29 05:04:24;;;;;;;9.73;6.55;;;;;;;22.70;75.56;95130.25;4999292;28;20169;-77
2022/06/29 05:06:50;;;;;;;12.43;7.72;;;;;;;22.68;75.30;95118.19;4988125;28;20637;-76
2022/06/29 05:09:15;;;;;;;13.05;7.50;;;;;;;22.86;73.54;95133.66;4999052;28;20172;-77
2022/06/29 05:11:41;;;;;;;15.50;8.52;;;;;;;22.94;73.76;95131.16;5000728;28;20544;-77
2022/06/29 05:14:07;;;;;;;14.18;10.23;;;;;;;22.95;72.49;95135.44;5006301;28;20184;-77
2022/06/29 05:16:32;;;;;;;9.60;7.20;;;;;;;22.85;73.21;95135.53;5001054;28;20204;-77
2022/06/29 05:18:58;;;;;;;16.58;11.23;;;;;;;22.82;73.24;95138.78;5004740;28;20227;-76
2022/06/29 05:21:23;;;;;;;10.27;7.78;;;;;;;22.84;71.89;95138.47;5005786;28;20547;-76
2022/06/29 05:23:48;;;;;;;12.70;7.55;;;;;;;22.69;72.07;95136.69;5006045;28;20180;-77
2022/06/29 05:26:15;;;;;;;10.88;8.50;;;;;;;22.74;73.92;95122.44;5008547;28;20187;-77
2022/06/29 05:28:40;;;;;;;15.05;8.32;;;;;;;22.62;75.13;95117.44;4997556;28;20176;-77
2022/06/29 05:31:06;;;;;;;10.40;8.20;;;;;;;22.81;74.41;95121.06;4998131;28;20172;-76
2022/06/29 05:33:36;;;;;;;11.05;7.53;;;;;;;23.13;73.84;95120.53;5008311;28;20211;-77
2022/06/29 05:36:10;;;;;;;13.18;8.80;;;;;;;23.39;73.06;95128.34;4999142;28;20176;-77
2022/06/29 05:38:37;;;;;;;14.65;8.80;;;;;;;23.65;73.06;95127.81;5000275;28;20251;-76
2022/06/29 05:41:04;;;;;;;15.82;9.90;;;;;;;23.77;73.17;95111.28;4996370;28;20168;-76
2022/06/29 05:43:30;;;;;;;12.73;9.10;;;;;;;24.02;70.81;95116.34;4999177;28;20181;-76
2022/06/29 05:45:56;;;;;;;12.20;8.18;;;;;;;23.93;69.31;95112.69;4999644;28;20221;-76
2022/06/29 05:48:23;;;;;;;10.52;7.85;;;;;;;24.05;69.16;95134.59;4983919;28;20164;-77
2022/06/29 05:50:48;;;;;;;12.38;8.55;;;;;;;23.94;69.67;95124.25;4993810;28;20208;-77
2022/06/29 05:53:14;;;;;;;13.13;8.20;;;;;;;24.00;70.90;95148.13;4996392;28;20209;-77
2022/06/29 05:55:40;;;;;;;15.23;9.60;;;;;;;24.12;70.24;95136.94;4990363;28;20183;-77
2022/06/29 05:58:06;;;;;;;16.50;8.57;;;;;;;24.30;70.20;95156.94;4981074;28;20193;-77
2022/06/29 06:00:31;;;;;;;21.58;9.05;;;;;;;24.56;70.04;95152.00;5002152;28;20189;-77
2022/06/29 06:02:57;;;;;;;10.32;7.32;;;;;;;24.91;69.65;95156.88;4999570;28;20169;-77
2022/06/29 06:05:22;;;;;;;10.10;6.90;;;;;;;25.25;67.38;95158.50;5008579;28;20372;-77
2022/06/29 06:07:47;;;;;;;11.77;6.35;;;;;;;25.44;67.67;95157.31;4999622;28;20183;-77
2022/06/29 06:10:13;;;;;;;11.00;6.80;;;;;;;25.60;64.38;95157.88;5000724;28;20245;-78
2022/06/29 06:12:38;;;;;;;11.70;7.30;;;;;;;25.70;66.14;95167.69;5008063;28;20649;-78
2022/06/29 06:15:04;;;;;;;8.02;6.65;;;;;;;25.32;64.44;95159.72;4998309;28;20177;-78
2022/06/29 06:17:30;;;;;;;9.27;6.57;;;;;;;25.37;65.46;95161.50;5002057;28;20193;-78
2022/06/29 06:19:56;;;;;;;9.52;6.28;;;;;;;25.59;63.87;95155.47;5002126;28;20173;-78
2022/06/29 06:22:22;;;;;;;8.43;6.10;;;;;;;25.67;63.38;95162.91;5006259;28;20672;-77
2022/06/29 06:24:47;;;;;;;9.38;6.55;;;;;;;25.86;63.58;95152.81;5010491;28;20184;-78
2022/06/29 06:27:13;;;;;;;12.50;6.93;;;;;;;25.98;63.94;95149.63;5000011;28;20227;-78
2022/06/29 06:29:39;;;;;;;10.82;6.78;;;;;;;26.08;65.83;95134.03;5004824;28;20180;-78
2022/06/29 06:32:04;;;;;;;9.00;6.22;;;;;;;26.41;63.69;95132.00;4986961;28;20782;-78
2022/06/29 06:34:31;;;;;;;10.63;6.93;;;;;;;26.65;62.62;95146.03;5003414;28;20205;-78
2022/06/29 06:36:56;;;;;;;10.57;7.40;;;;;;;26.65;61.20;95137.13;4996833;28;20205;-78
2022/06/29 06:39:22;;;;;;;11.00;8.00;;;;;;;25.71;62.39;95129.63;5006307;28;20228;-78
2022/06/29 06:41:47;;;;;;;10.75;6.45;;;;;;;25.79;65.20;95139.72;5002247;28;20558;-78
2022/06/29 06:44:12;;;;;;;10.45;7.30;;;;;;;26.13;64.91;95116.91;5005243;28;20232;-78
2022/06/29 06:46:38;;;;;;;13.60;7.35;;;;;;;26.61;59.93;95134.25;5003875;28;20176;-79
2022/06/29 06:49:03;;;;;;;14.00;6.32;;;;;;;26.62;63.71;95119.66;5006478;28;20171;-79
2022/06/29 06:51:29;;;;;;;9.32;6.55;;;;;;;26.91;62.23;95131.97;5006058;28;20179;-79
2022/06/29 06:53:54;;;;;;;11.73;9.18;;;;;;;27.18;61.55;95112.09;4988708;28;20259;-79
2022/06/29 06:56:20;;;;;;;12.55;6.85;;;;;;;27.39;59.85;95122.13;5005952;28;20183;-80
2022/06/29 06:58:45;;;;;;;14.07;9.07;;;;;;;27.49;61.67;95121.06;5005950;28;20168;-79
2022/06/29 07:01:11;;;;;;;19.80;13.48;;;;;;;27.71;59.81;95126.41;5005697;28;20180;-79
2022/06/29 07:03:37;;;;;;;13.32;7.35;;;;;;;27.82;61.21;95116.13;5004914;28;20212;-79
2022/06/29 07:06:08;;;;;;;18.38;5.93;;;;;;;27.96;61.05;95122.22;5003785;28;20223;-79
2022/06/29 07:08:35;;;;;;;11.00;7.45;;;;;;;28.21;58.70;95114.50;4995055;28;20205;-79
2022/06/29 07:11:02;;;;;;;6.80;5.70;;;;;;;28.30;57.64;95115.31;5003468;28;20255;-79
2022/06/29 07:13:28;;;;;;;8.52;6.10;;;;;;;28.06;56.74;95115.72;5003486;28;20224;-78
2022/06/29 07:15:54;;;;;;;12.02;5.90;;;;;;;28.02;60.88;95095.81;4996126;28;20203;-79
2022/06/29 07:18:20;;;;;;;7.72;5.85;;;;;;;28.27;56.68;95118.66;5003472;28;20787;-78
2022/06/29 07:20:45;;;;;;;10.52;5.13;;;;;;;28.40;58.79;95107.69;5000146;28;20196;-78
2022/06/29 07:23:11;;;;;;;14.10;5.07;;;;;;;28.47;58.01;95091.75;4999629;28;20176;-78
2022/06/29 07:25:36;;;;;;;6.97;3.80;;;;;;;28.66;55.47;95109.59;4997253;28;20232;-78
2022/06/29 07:28:02;;;;;;;9.93;4.60;;;;;;;28.44;53.78;95102.44;4997697;28;20260;-78
2022/06/29 07:30:28;;;;;;;10.88;4.25;;;;;;;28.55;51.19;95103.69;4996459;28;20964;-80
2022/06/29 07:32:53;;;;;;;5.88;3.75;;;;;;;28.78;53.23;95109.81;5000673;28;20224;-79
2022/06/29 07:35:19;;;;;;;5.70;3.80;;;;;;;28.87;51.88;95107.91;5001684;28;20193;-79
2022/06/29 07:37:44;;;;;;;11.10;4.78;;;;;;;28.73;52.70;95109.94;5002468;28;20201;-79
2022/06/29 07:40:10;;;;;;;13.32;5.68;;;;;;;28.65;52.57;95097.16;4994538;28;20224;-79
2022/06/29 07:42:36;;;;;;;7.32;4.55;;;;;;;28.42;52.76;95091.91;5002558;28;20188;-79
2022/06/29 07:45:06;;;;;;;8.75;4.55;;;;;;;28.63;54.77;95094.00;4998637;28;20252;-78
2022/06/29 07:47:32;;;;;;;5.15;4.65;;;;;;;28.72;52.62;95095.56;5007624;28;20299;-81
2022/06/29 07:49:59;;;;;;;4.55;3.92;;;;;;;28.79;53.11;95085.09;5007908;28;20254;-80
2022/06/29 07:52:24;;;;;;;6.55;4.60;;;;;;;29.17;54.29;95098.75;4994168;28;20184;-77
2022/06/29 07:54:50;;;;;;;7.75;5.13;;;;;;;29.20;52.03;95075.63;4993214;28;20227;-77
2022/06/29 07:57:16;;;;;;;9.27;4.80;;;;;;;29.41;54.12;95089.28;5001590;28;20279;-78
2022/06/29 07:59:41;;;;;;;11.32;4.70;;;;;;;29.55;53.48;95096.13;4996091;28;20751;-77
2022/06/29 08:02:07;;;;;;;8.65;4.68;;;;;;;29.57;53.94;95080.31;4995253;28;20185;-76
2022/06/29 08:04:32;;;;;;;7.85;5.03;;;;;;;29.73;50.14;95077.06;4992659;28;20267;-77
2022/06/29 08:06:58;;;;;;;8.57;4.65;;;;;;;29.80;49.50;95070.00;4993137;28;20642;-79
2022/06/29 08:09:23;;;;;;;9.40;4.70;;;;;;;29.92;50.37;95089.13;4975837;28;20591;-78
2022/06/29 08:11:51;;;;;;;5.32;3.97;;;;;;;29.98;50.40;95087.03;4997937;28;20173;-79
2022/06/29 08:14:16;;;;;;;5.97;4.32;;;;;;;30.05;53.21;95095.44;5004704;28;20570;-78
2022/06/29 08:16:42;;;;;;;8.05;5.70;;;;;;;30.04;54.79;95071.34;5004243;28;20184;-78
2022/06/29 08:19:07;;;;;;;8.55;4.03;;;;;;;30.18;52.26;95083.56;5002277;28;20193;-78
2022/06/29 08:21:33;;;;;;;10.55;4.30;;;;;;;30.06;52.68;95061.72;4998522;28;20196;-79
2022/06/29 08:23:58;;;;;;;8.77;4.22;;;;;;;30.02;53.70;95069.72;4997447;28;20192;-79
2022/06/29 08:26:24;;;;;;;7.15;3.85;;;;;;;30.08;53.13;95088.56;5002432;28;20172;-79
2022/06/29 08:28:49;;;;;;;4.68;3.80;;;;;;;30.26;52.71;95068.34;4994229;28;20688;-80
2022/06/29 08:31:15;;;;;;;6.60;4.50;;;;;;;30.11;50.28;95066.97;4979590;28;20181;-81
2022/06/29 08:33:40;;;;;;;5.47;4.85;;;;;;;30.04;53.52;95069.41;5000391;28;20259;-81
2022/06/29 08:36:06;;;;;;;8.65;4.30;;;;;;;29.59;51.78;95093.53;5001308;28;20173;-80
2022/06/29 08:38:31;;;;;;;4.65;4.18;;;;;;;29.56;54.09;95086.06;5011325;28;20768;-80
2022/06/29 08:40:57;;;;;;;7.00;4.45;;;;;;;29.86;52.40;95076.81;5010142;28;20181;-81
2022/06/29 08:43:23;;;;;;;7.65;4.18;;;;;;;30.21;50.06;95085.59;5004641;28;20173;-80
2022/06/29 08:45:49;;;;;;;5.85;3.78;;;;;;;30.21;51.06;95090.25;5001253;28;20312;-80
2022/06/29 08:48:16;;;;;;;12.20;3.92;;;;;;;30.02;51.35;95071.66;4999712;28;20180;-81
2022/06/29 08:50:48;;;;;;;7.00;3.50;;;;;;;29.87;48.48;95058.63;5002627;28;20177;-81
2022/06/29 08:53:15;;;;;;;4.53;3.72;;;;;;;29.84;51.07;95062.78;5004887;28;20177;-80
2022/06/29 08:55:49;;;;;;;6.75;3.80;;;;;;;29.94;50.52;95072.50;4985696;28;20192;-80
2022/06/29 08:58:24;;;;;;;6.03;3.92;;;;;;;29.81;52.28;95070.78;5001392;28;20200;-81
2022/06/29 09:00:52;;;;;;;6.03;3.63;;;;;;;30.07;53.34;95073.41;5007534;28;20172;-79
2022/06/29 09:03:19;;;;;;;7.60;3.33;;;;;;;29.79;51.35;95005.97;5005673;28;20188;-80
2022/06/29 09:05:56;;;;;;;9.10;3.40;;;;;;;29.92;50.36;95017.72;4996088;28;20193;-81
2022/06/29 09:08:23;;;;;;;6.60;3.47;;;;;;;30.44;51.60;95066.28;4997177;28;20188;-82
2022/06/29 09:10:49;;;;;;;4.18;3.25;;;;;;;30.26;51.00;95012.06;4977693;28;20188;-79
2022/06/29 09:13:22;;;;;;;4.25;3.13;;;;;;;30.24;49.51;95018.94;4995166;28;20259;-80
2022/06/29 09:15:59;;;;;;;6.80;2.92;;;;;;;30.51;47.24;95063.81;5008059;28;20193;-80
2022/06/29 09:18:30;;;;;;;5.70;3.13;;;;;;;30.68;48.05;95069.94;4996859;28;20255;-80
2022/06/29 09:21:02;;;;;;;7.82;3.13;;;;;;;30.70;46.73;95077.78;5003343;28;20236;-79
2022/06/29 09:23:29;;;;;;;6.32;3.30;;;;;;;29.73;47.81;94933.97;5001789;28;20207;-79
2022/06/29 09:25:55;;;;;;;4.88;3.33;;;;;;;30.11;47.08;94980.03;4995920;28;20173;-78
2022/06/29 09:28:23;;;;;;;4.18;3.05;;;;;;;29.93;46.45;95016.56;4994255;28;20185;-79
2022/06/29 09:30:50;;;;;;;6.75;3.28;;;;;;;30.07;49.09;95041.59;4985621;28;20238;-79
2022/06/29 09:33:15;;;;;;;6.00;3.38;;;;;;;30.39;48.32;95070.78;4993808;28;20721;-79
2022/06/29 09:35:42;;;;;;;9.73;4.47;;;;;;;29.79;48.29;94995.09;5004462;28;20172;-78
2022/06/29 09:38:23;;;;;;;5.53;3.25;;;;;;;30.15;48.85;95062.47;4985509;28;20215;-78
2022/06/29 09:41:10;;;;;;;10.38;3.00;;;;;;;29.91;45.88;95043.28;5003453;28;20202;-78
2022/06/29 09:43:40;;;;;;;4.93;3.35;;;;;;;29.54;44.37;94980.56;4992319;28;20193;-79
2022/06/29 09:46:08;;;;;;;3.70;3.28;;;;;;;29.98;45.56;95049.00;4997842;28;20620;-79
2022/06/29 09:48:35;;;;;;;4.00;3.00;;;;;;;29.97;45.81;95028.41;4976072;28;20177;-79
2022/06/29 09:51:30;;;;;;;4.28;2.92;;;;;;;29.61;46.30;95005.25;4996429;28;20176;-78
2022/06/29 09:53:52;;;;;;;6.93;3.00;;;;;;;29.57;43.21;95020.63;4999499;28;20185;-78
2022/06/29 09:56:19;;;;;;;5.15;3.15;;;;;;;29.18;45.78;94991.06;4991006;28;20181;-78
2022/06/29 09:58:46;;;;;;;6.07;2.97;;;;;;;29.61;44.19;95056.81;5000951;28;20204;-78
2022/06/29 10:03:59;;;;;;;4.03;3.00;;;;;;;29.25;43.58;94986.72;4994484;28;20182;-79
2022/06/29 10:06:25;;;;;;;4.78;2.85;;;;;;;29.08;43.60;94958.88;4996210;28;20204;-75
2022/06/29 10:08:52;;;;;;;4.03;2.70;;;;;;;29.40;43.66;95042.41;4992977;28;20240;-77
2022/06/29 10:15:10;;;;;;;4.75;3.22;;;;;;;29.15;45.22;95035.88;5003277;28;20191;-81
2022/06/29 10:18:03;;;;;;;4.95;3.28;;;;;;;29.13;46.63;95031.94;4998588;28;20291;-80
2022/06/29 10:20:41;;;;;;;5.90;2.70;;;;;;;29.25;44.68;95037.47;4987787;28;20285;-80
2022/06/29 10:23:07;;;;;;;6.18;3.83;;;;;;;28.83;45.08;94995.78;4986962;28;20188;-81
2022/06/29 10:25:32;;;;;;;7.68;2.90;;;;;;;29.03;45.07;95049.34;5004583;28;20287;-81
2022/06/29 10:28:27;;;;;;;5.32;3.13;;;;;;;27.93;44.17;94890.06;5004576;28;20711;-80
2022/06/29 10:30:55;;;;;;;5.85;2.72;;;;;;;28.68;45.01;95007.09;4963153;28;20685;-81
2022/06/29 10:33:33;;;;;;;3.13;2.60;;;;;;;27.95;41.83;94890.53;5005146;28;20223;-80
2022/06/29 10:36:07;;;;;;;5.45;2.50;;;;;;;27.96;42.77;94891.31;4980514;28;20223;-80
2022/06/29 10:38:54;;;;;;;3.85;2.60;;;;;;;28.65;42.71;95037.56;4984692;28;20219;-81
2022/06/29 10:44:05;;;;;;;5.60;2.45;;;;;;;28.46;42.58;94975.56;5002385;28;20243;-81
2022/06/29 10:46:57;;;;;;;4.65;2.10;;;;;;;28.51;39.18;95006.03;4993077;28;20238;-80
2022/06/29 10:49:23;;;;;;;2.53;1.90;;;;;;;28.13;38.97;94950.88;4991530;28;20189;-80
2022/06/29 10:51:49;;;;;;;4.90;2.30;;;;;;;27.53;40.25;94888.56;4991141;28;20268;-80
2022/06/29 10:54:30;;;;;;;6.97;2.10;;;;;;;27.58;40.31;94877.63;5001839;28;20260;-80
2022/06/29 10:56:56;;;;;;;4.13;2.40;;;;;;;28.00;40.88;94941.00;4998136;28;20200;-80
2022/06/29 10:59:34;;;;;;;4.90;2.28;;;;;;;28.53;40.77;95024.66;5004674;28;20176;-80
2022/06/29 11:02:15;;;;;;;8.30;2.20;;;;;;;27.69;42.17;94903.25;4988029;28;20191;-81
2022/06/29 11:04:42;;;;;;;6.15;3.80;;;;;;;28.27;43.57;94977.84;5012122;28;20188;-81
2022/06/29 11:12:55;;;;;;;3.42;2.88;;;;;;;28.50;41.09;94987.38;5009231;28;20219;-81
2022/06/29 11:15:40;;;;;;;4.25;2.70;;;;;;;28.71;41.23;95010.00;4995731;28;20577;-82
2022/06/29 11:18:27;;;;;;;6.55;2.97;;;;;;;28.51;42.37;94984.34;4986853;28;20204;-81
2022/06/29 11:20:54;;;;;;;3.85;2.97;;;;;;;28.79;40.60;95008.41;5004088;28;20701;-80
2022/06/29 11:23:27;;;;;;;3.55;2.17;;;;;;;28.62;39.12;94965.03;5009771;28;20180;-82
2022/06/29 11:25:56;;;;;;;2.45;2.15;;;;;;;28.54;38.44;94950.41;4987843;28;20179;-81
2022/06/29 11:28:28;;;;;;;2.95;2.33;;;;;;;28.39;39.11;94910.25;4976502;28;20173;-82
2022/06/29 11:31:11;;;;;;;3.95;2.30;;;;;;;28.01;38.56;94840.53;4976298;28;20181;-82
2022/06/29 11:33:41;;;;;;;3.22;2.40;;;;;;;29.01;39.28;94996.53;4995407;28;20625;-82
2022/06/29 11:36:12;;;;;;;11.55;2.97;;;;;;;28.85;40.99;94969.94;5002291;28;20188;-82
2022/06/29 11:38:43;;;;;;;4.88;2.60;;;;;;;29.05;41.49;94983.94;4992674;28;20288;-82
2022/06/29 11:44:27;;;;;;;3.75;2.72;;;;;;;29.08;40.36;94967.00;5009224;28;20231;-82
2022/06/29 11:46:53;;;;;;;2.47;2.28;;;;;;;29.03;40.89;94962.56;4989233;28;20176;-80
2022/06/29 11:49:36;;;;;;;3.03;2.17;;;;;;;29.21;38.34;94974.16;4992354;28;20180;-80
2022/06/29 11:52:04;;;;;;;2.70;2.40;;;;;;;29.06;36.83;94947.56;4974900;28;20189;-80
2022/06/29 11:55:00;;;;;;;6.50;2.28;;;;;;;29.19;38.80;94970.94;4992400;28;20180;-80
2022/06/29 11:57:26;;;;;;;5.03;2.05;;;;;;;29.27;38.79;94970.13;4992166;28;20201;-80